Time;durP1;ratioP1;P1;durP2;ratioP2;P2;SDS_P1;SDS_P2;PMS_P1;PMS_P2;Temp;Humidity;BMP_temperature;BMP_pressure;BME280_temperature;BME280_humidity;BME280_pressure;Samples;Min_cycle;Max_cycle;Signal;HPM_P1;HPM_P2
2022/02/22 00:02:16;;;;;;;13.40;9.20;;;;;;;-1.03;70.23;99072.84;4987187;28;20082;-81
2022/02/22 00:04:44;;;;;;;15.77;9.45;;;;;;;-0.94;69.92;99071.69;4945441;28;20066;-81
2022/02/22 00:07:11;;;;;;;12.32;9.18;;;;;;;-0.99;70.20;99086.72;4961463;28;20493;-82
2022/02/22 00:09:37;;;;;;;14.02;9.55;;;;;;;-0.96;70.34;99077.88;4956036;28;20418;-82
2022/02/22 00:12:04;;;;;;;12.65;8.48;;;;;;;-0.96;70.18;99078.72;4976493;28;20414;-81
2022/02/22 00:14:30;;;;;;;13.18;9.00;;;;;;;-1.03;70.27;99077.25;4960575;28;20047;-82
2022/02/22 00:16:56;;;;;;;13.52;8.80;;;;;;;-1.12;70.16;99072.34;4977210;28;20082;-82
2022/02/22 00:19:23;;;;;;;15.40;9.60;;;;;;;-1.00;70.40;99082.38;4960405;28;20049;-82
2022/02/22 00:21:50;;;;;;;13.77;8.77;;;;;;;-0.93;69.83;99081.25;4959514;28;20042;-82
2022/02/22 00:24:16;;;;;;;15.13;9.73;;;;;;;-0.96;70.35;99076.09;4976855;28;20050;-81
2022/02/22 00:26:42;;;;;;;12.50;8.80;;;;;;;-0.92;70.19;99075.09;4940286;29;20078;-82
2022/02/22 00:29:08;;;;;;;13.52;9.05;;;;;;;-0.85;69.95;99081.81;4959235;28;20096;-82
2022/02/22 00:31:35;;;;;;;11.98;8.73;;;;;;;-0.85;69.55;99080.97;4943622;28;20038;-82
2022/02/22 00:34:05;;;;;;;11.75;8.45;;;;;;;-0.95;69.87;99090.06;4959557;28;20046;-82
2022/02/22 00:36:31;;;;;;;14.50;9.73;;;;;;;-1.04;69.68;99079.03;4959491;28;20522;-82
2022/02/22 00:38:57;;;;;;;13.55;9.10;;;;;;;-1.02;69.51;99085.03;4959094;28;20145;-82
2022/02/22 00:41:23;;;;;;;13.68;8.27;;;;;;;-1.23;69.83;99091.94;4943066;28;20550;-82
2022/02/22 00:43:49;;;;;;;12.32;8.82;;;;;;;-1.22;70.08;99098.06;4976614;28;20174;-80
2022/02/22 00:46:15;;;;;;;13.93;8.93;;;;;;;-1.17;70.27;99100.50;4960505;28;20042;-81
2022/02/22 00:48:41;;;;;;;12.13;8.40;;;;;;;-1.24;69.79;99106.00;4976656;28;20050;-82
2022/02/22 00:51:07;;;;;;;14.68;9.25;;;;;;;-1.34;69.99;99094.09;4943497;28;20622;-82
2022/02/22 00:53:32;;;;;;;13.43;9.15;;;;;;;-1.52;70.28;99076.41;4928204;28;20141;-81
2022/02/22 00:55:58;;;;;;;12.88;8.00;;;;;;;-1.50;70.32;99088.56;4948726;28;20045;-80
2022/02/22 00:58:24;;;;;;;14.60;9.40;;;;;;;-1.59;70.41;99085.38;4997027;28;20046;-81
2022/02/22 01:00:50;;;;;;;13.85;8.63;;;;;;;-1.62;71.07;99088.09;4941154;28;20047;-82
2022/02/22 01:03:16;;;;;;;13.40;8.65;;;;;;;-1.71;70.94;99087.53;4959327;28;20561;-82
2022/02/22 01:05:42;;;;;;;16.40;9.23;;;;;;;-1.58;71.23;99105.44;4944790;28;20109;-81
2022/02/22 01:08:08;;;;;;;14.07;8.90;;;;;;;-1.60;71.32;99096.78;4931385;28;20075;-82
2022/02/22 01:10:34;;;;;;;13.80;9.15;;;;;;;-1.63;71.57;99100.34;4976311;28;20140;-81
2022/02/22 01:13:00;;;;;;;15.05;9.52;;;;;;;-1.61;71.28;99095.09;4975861;28;20193;-81
2022/02/22 01:15:26;;;;;;;16.00;9.18;;;;;;;-1.56;71.46;99094.00;4942734;28;20050;-83
2022/02/22 01:17:52;;;;;;;15.75;8.93;;;;;;;-1.54;71.33;99097.44;4942695;28;20137;-82
2022/02/22 01:20:18;;;;;;;13.88;9.00;;;;;;;-1.45;71.23;99101.50;4958628;28;20042;-82
2022/02/22 01:22:44;;;;;;;13.80;8.27;;;;;;;-1.40;71.39;99102.19;4958786;28;20046;-81
2022/02/22 01:25:13;;;;;;;13.32;8.85;;;;;;;-1.40;71.22;99104.78;4974733;28;20383;-82
2022/02/22 01:27:39;;;;;;;14.82;9.35;;;;;;;-1.39;71.42;99114.41;4942796;28;20419;-83
2022/02/22 01:30:07;;;;;;;15.10;8.02;;;;;;;-1.37;71.50;99114.34;4942734;28;20501;-81
2022/02/22 01:32:33;;;;;;;14.63;9.27;;;;;;;-1.34;71.58;99124.72;4942781;28;20046;-82
2022/02/22 01:34:59;;;;;;;15.07;9.05;;;;;;;-1.32;71.83;99123.72;4958556;28;20073;-82
2022/02/22 01:37:24;;;;;;;12.73;8.82;;;;;;;-1.25;71.46;99130.47;4942335;28;20141;-81
2022/02/22 01:39:50;;;;;;;12.98;8.38;;;;;;;-1.23;71.58;99123.44;4975453;28;20074;-82
2022/02/22 01:42:17;;;;;;;13.70;9.07;;;;;;;-1.25;71.25;99125.22;4954724;28;20067;-83
2022/02/22 01:44:46;;;;;;;12.30;8.60;;;;;;;-1.12;71.20;99140.56;4971036;28;20053;-81
2022/02/22 01:47:16;;;;;;;14.48;8.23;;;;;;;-1.37;71.08;99146.66;4955393;28;20458;-82
2022/02/22 01:49:45;;;;;;;12.18;7.63;;;;;;;-1.38;71.32;99130.97;4943118;28;20047;-82
2022/02/22 01:52:11;;;;;;;14.43;8.43;;;;;;;-1.39;71.36;99131.88;4975465;28;20047;-82
2022/02/22 01:54:37;;;;;;;14.93;8.32;;;;;;;-1.25;71.60;99140.13;4975348;28;20053;-83
2022/02/22 01:57:03;;;;;;;10.90;7.47;;;;;;;-1.28;71.18;99135.84;4942348;28;20050;-81
2022/02/22 01:59:29;;;;;;;14.25;8.00;;;;;;;-1.39;71.34;99138.00;4942386;28;20038;-82
2022/02/22 02:01:55;;;;;;;12.18;7.97;;;;;;;-1.36;71.61;99137.88;4957926;28;20462;-84
2022/02/22 02:04:21;;;;;;;13.68;8.30;;;;;;;-1.30;71.30;99140.28;4942034;28;20053;-82
2022/02/22 02:06:48;;;;;;;15.82;7.72;;;;;;;-1.19;71.27;99144.31;4974992;28;20056;-82
2022/02/22 02:09:13;;;;;;;12.50;8.13;;;;;;;-1.17;71.19;99145.94;4958288;28;20414;-83
2022/02/22 02:11:45;;;;;;;14.43;8.57;;;;;;;-1.30;71.25;99147.31;4941687;28;20057;-83
2022/02/22 02:14:11;;;;;;;12.18;7.88;;;;;;;-1.37;71.01;99146.66;4957793;28;20541;-83
2022/02/22 02:16:37;;;;;;;11.88;8.30;;;;;;;-1.38;71.32;99159.81;4941365;28;20050;-84
2022/02/22 02:19:03;;;;;;;14.50;8.60;;;;;;;-1.38;71.69;99155.44;4975079;28;20486;-82
2022/02/22 02:21:30;;;;;;;13.23;8.68;;;;;;;-1.42;71.26;99153.81;4941736;28;20117;-82
2022/02/22 02:24:09;;;;;;;17.02;8.52;;;;;;;-1.38;71.37;99155.44;4957774;28;20097;-82
2022/02/22 02:26:35;;;;;;;13.18;8.48;;;;;;;-1.43;71.70;99152.09;4957783;28;20140;-82
2022/02/22 02:29:02;;;;;;;17.02;9.75;;;;;;;-1.36;71.38;99152.75;4909932;28;20094;-80
2022/02/22 02:31:28;;;;;;;19.73;10.23;;;;;;;-1.31;71.29;99162.19;4941294;28;20510;-80
2022/02/22 02:33:55;;;;;;;14.50;9.40;;;;;;;-1.21;71.37;99146.97;4931463;29;20414;-80
2022/02/22 02:36:21;;;;;;;15.88;9.82;;;;;;;-1.13;70.88;99151.94;4941523;28;20097;-80
2022/02/22 02:38:47;;;;;;;17.10;9.48;;;;;;;-1.24;70.83;99158.44;4960423;28;20050;-81
2022/02/22 02:41:13;;;;;;;17.08;8.90;;;;;;;-1.26;70.97;99152.38;4929274;28;20050;-80
2022/02/22 02:43:39;;;;;;;13.18;8.20;;;;;;;-1.30;70.64;99163.88;4929842;28;20054;-80
2022/02/22 02:46:05;;;;;;;14.65;8.52;;;;;;;-1.35;71.04;99155.31;4960679;28;20038;-82
2022/02/22 02:48:31;;;;;;;12.38;8.35;;;;;;;-1.45;70.90;99140.81;4925702;29;20047;-81
2022/02/22 02:50:57;;;;;;;13.75;8.40;;;;;;;-1.29;72.47;99149.84;4953561;28;20077;-81
2022/02/22 02:53:22;;;;;;;15.18;9.25;;;;;;;-1.23;71.70;99154.03;4955250;28;20039;-82
2022/02/22 02:55:49;;;;;;;13.57;8.30;;;;;;;-1.32;71.22;99152.56;4920128;28;20478;-84
2022/02/22 02:58:15;;;;;;;13.13;8.15;;;;;;;-1.41;71.10;99165.16;4928003;28;20470;-81
2022/02/22 03:00:41;;;;;;;12.60;7.80;;;;;;;-1.50;71.06;99171.59;4938522;29;20149;-82
2022/02/22 03:03:07;;;;;;;13.95;8.20;;;;;;;-1.52;71.52;99168.16;4924760;28;20149;-81
2022/02/22 03:05:33;;;;;;;14.50;7.45;;;;;;;-1.54;71.09;99159.50;4936862;29;20145;-81
2022/02/22 03:07:59;;;;;;;13.15;8.18;;;;;;;-1.71;71.48;99178.38;4939012;28;20047;-81
2022/02/22 03:10:27;;;;;;;13.48;7.80;;;;;;;-1.68;72.06;99174.81;4909652;28;20503;-85
2022/02/22 03:12:52;;;;;;;12.95;7.80;;;;;;;-1.66;71.89;99180.84;4974137;28;20046;-81
2022/02/22 03:15:19;;;;;;;14.00;8.13;;;;;;;-1.64;71.76;99179.91;4956811;28;20070;-86
2022/02/22 03:17:45;;;;;;;15.18;8.98;;;;;;;-1.63;71.63;99180.75;4924902;28;20051;-79
2022/02/22 03:20:11;;;;;;;14.25;9.63;;;;;;;-1.58;71.50;99187.56;4974073;28;20054;-82
2022/02/22 03:22:45;;;;;;;19.90;9.13;;;;;;;-1.54;71.25;99188.31;4952700;28;20041;-85
2022/02/22 03:25:11;;;;;;;16.73;8.82;;;;;;;-1.49;71.17;99196.88;4957964;28;20047;-80
2022/02/22 03:27:38;;;;;;;19.25;8.18;;;;;;;-1.56;71.01;99193.59;4973074;28;20059;-79
2022/02/22 03:30:05;;;;;;;14.32;7.75;;;;;;;-1.41;70.84;99202.72;4974839;28;20065;-78
2022/02/22 03:32:32;;;;;;;12.02;7.80;;;;;;;-1.35;70.63;99218.25;4976721;28;20043;-81
2022/02/22 03:34:58;;;;;;;12.43;7.75;;;;;;;-1.36;70.94;99227.00;4975710;28;20042;-79
2022/02/22 03:37:23;;;;;;;17.35;7.30;;;;;;;-1.35;70.56;99218.25;4976578;28;20468;-78
2022/02/22 03:39:49;;;;;;;14.82;7.53;;;;;;;-1.35;70.38;99225.28;4976562;28;20051;-78
2022/02/22 03:42:15;;;;;;;17.15;8.80;;;;;;;-1.33;70.58;99221.66;4976377;28;20089;-79
2022/02/22 03:44:41;;;;;;;15.82;8.73;;;;;;;-1.29;70.38;99228.53;4944384;28;20066;-80
2022/02/22 03:47:07;;;;;;;22.45;8.65;;;;;;;-1.23;70.04;99238.81;4944421;28;20433;-78
2022/02/22 03:49:33;;;;;;;11.50;8.00;;;;;;;-1.20;69.96;99231.72;4944766;28;20144;-83
2022/02/22 03:51:59;;;;;;;20.25;9.25;;;;;;;-1.27;69.87;99246.84;4944277;28;20552;-81
2022/02/22 03:54:25;;;;;;;12.57;7.65;;;;;;;-1.23;69.68;99245.84;4976366;28;20054;-80
2022/02/22 03:56:51;;;;;;;14.95;8.30;;;;;;;-1.18;69.63;99241.28;4928254;28;20062;-79
2022/02/22 03:59:17;;;;;;;15.32;7.88;;;;;;;-1.19;69.54;99243.97;4960115;28;20043;-81
2022/02/22 04:01:43;;;;;;;13.73;7.85;;;;;;;-1.17;69.75;99247.38;4960030;28;20052;-81
2022/02/22 04:04:09;;;;;;;22.80;8.70;;;;;;;-0.99;69.61;99246.75;4960077;28;20066;-80
2022/02/22 04:06:35;;;;;;;13.98;8.80;;;;;;;-0.90;69.14;99235.06;4941519;28;20513;-82
2022/02/22 04:09:00;;;;;;;14.20;8.70;;;;;;;-0.89;69.03;99242.06;4960287;28;20418;-81
2022/02/22 04:11:27;;;;;;;13.27;8.35;;;;;;;-0.86;68.67;99232.31;4977503;28;20046;-80
2022/02/22 04:13:53;;;;;;;18.45;8.02;;;;;;;-0.75;68.47;99239.81;4976106;28;20418;-81
2022/02/22 04:16:19;;;;;;;15.27;8.18;;;;;;;-0.63;68.46;99243.75;4959766;28;20070;-81
2022/02/22 04:18:45;;;;;;;21.45;7.97;;;;;;;-0.58;68.03;99244.44;4975615;28;20499;-79
2022/02/22 04:21:10;;;;;;;13.75;7.93;;;;;;;-0.54;67.60;99248.66;4975672;28;20049;-81
2022/02/22 04:23:36;;;;;;;24.38;8.43;;;;;;;-0.51;67.49;99238.03;4991865;28;20569;-79
2022/02/22 04:26:02;;;;;;;14.77;7.68;;;;;;;-0.47;66.99;99246.66;4975351;28;20054;-82
2022/02/22 04:28:28;;;;;;;11.52;7.25;;;;;;;-0.56;66.80;99250.50;4976794;28;20112;-82
2022/02/22 04:30:54;;;;;;;17.50;7.60;;;;;;;-0.47;66.74;99252.78;4959375;28;20057;-81
2022/02/22 04:33:20;;;;;;;11.02;7.32;;;;;;;-0.35;66.79;99259.34;4975367;28;20057;-80
2022/02/22 04:35:46;;;;;;;11.52;7.07;;;;;;;-0.36;66.15;99255.00;4959176;28;20053;-80
2022/02/22 04:38:12;;;;;;;13.65;7.13;;;;;;;-0.27;65.90;99250.25;4992454;28;20049;-79
2022/02/22 04:40:38;;;;;;;21.67;8.35;;;;;;;-0.17;66.07;99252.56;4961562;28;20043;-83
2022/02/22 04:43:04;;;;;;;11.00;7.10;;;;;;;-0.09;66.03;99250.47;4976048;28;20145;-80
2022/02/22 04:45:30;;;;;;;9.63;7.00;;;;;;;0.02;65.07;99248.31;4943764;28;20053;-81
2022/02/22 04:47:56;;;;;;;13.77;7.45;;;;;;;0.04;64.89;99251.75;4975137;28;20088;-81
2022/02/22 04:50:22;;;;;;;14.05;8.10;;;;;;;0.06;65.23;99255.16;4991855;28;20038;-81
2022/02/22 04:52:49;;;;;;;12.23;7.50;;;;;;;-0.07;64.74;99256.56;4976403;28;20035;-81
2022/02/22 04:55:15;;;;;;;14.63;8.50;;;;;;;0.03;65.53;99257.03;4943166;28;20552;-80
2022/02/22 04:57:41;;;;;;;15.80;9.23;;;;;;;0.13;65.46;99261.03;4958904;28;20137;-83
2022/02/22 05:00:08;;;;;;;16.23;9.95;;;;;;;0.11;65.16;99261.06;4974757;28;20510;-80
2022/02/22 05:02:34;;;;;;;14.70;9.00;;;;;;;0.27;65.12;99268.38;4958933;28;20035;-80
2022/02/22 05:05:00;;;;;;;16.98;9.48;;;;;;;0.34;65.02;99275.09;4975995;28;20550;-81
2022/02/22 05:07:26;;;;;;;20.50;10.48;;;;;;;0.37;65.28;99272.34;4990903;28;20046;-78
2022/02/22 05:09:52;;;;;;;17.40;10.20;;;;;;;0.51;65.21;99283.19;4942769;28;20054;-80
2022/02/22 05:12:19;;;;;;;17.38;9.93;;;;;;;0.63;64.58;99282.66;4975960;28;20506;-82
2022/02/22 05:14:45;;;;;;;18.40;11.02;;;;;;;0.67;64.01;99273.75;4977132;28;20046;-81
2022/02/22 05:17:10;;;;;;;16.00;10.07;;;;;;;0.69;63.79;99277.19;4978211;28;20046;-81
2022/02/22 05:19:36;;;;;;;17.67;11.32;;;;;;;0.51;63.95;99261.28;4976647;28;20525;-81
2022/02/22 05:22:03;;;;;;;21.15;12.43;;;;;;;0.50;64.31;99270.94;4958686;28;20126;-81
2022/02/22 05:24:28;;;;;;;22.95;15.27;;;;;;;0.46;64.13;99264.97;4974568;28;20043;-81
2022/02/22 05:26:54;;;;;;;23.35;15.10;;;;;;;0.39;64.23;99279.25;4974360;28;20049;-81
2022/02/22 05:29:21;;;;;;;20.65;13.88;;;;;;;0.38;64.54;99263.56;4958001;28;20054;-82
2022/02/22 05:31:47;;;;;;;21.70;13.15;;;;;;;0.19;64.20;99271.31;4974470;28;20047;-81
2022/02/22 05:34:12;;;;;;;18.10;11.23;;;;;;;0.12;64.42;99268.06;4942039;28;20046;-80
2022/02/22 05:36:39;;;;;;;18.30;11.60;;;;;;;-0.01;64.70;99269.44;4991008;28;20125;-80
2022/02/22 05:39:05;;;;;;;16.70;10.38;;;;;;;0.05;65.24;99274.47;4942388;28;20057;-80
2022/02/22 05:41:31;;;;;;;15.48;9.70;;;;;;;0.07;65.25;99262.09;4926462;28;20046;-80
2022/02/22 05:43:57;;;;;;;14.88;9.85;;;;;;;0.29;65.12;99271.78;4961232;28;20042;-79
2022/02/22 05:46:23;;;;;;;21.77;11.48;;;;;;;0.45;64.82;99284.28;4977211;28;20065;-81
2022/02/22 05:48:49;;;;;;;13.93;9.27;;;;;;;0.57;64.81;99282.94;4961718;28;20057;-80
2022/02/22 05:51:15;;;;;;;12.75;9.07;;;;;;;0.64;63.96;99284.41;4994914;28;20125;-81
2022/02/22 05:53:41;;;;;;;16.13;9.32;;;;;;;0.55;64.04;99292.66;4960772;28;20078;-82
2022/02/22 05:56:07;;;;;;;14.70;9.35;;;;;;;0.66;63.80;99298.34;4961310;28;20083;-82
2022/02/22 05:58:33;;;;;;;13.85;9.95;;;;;;;0.71;63.60;99301.66;4961068;28;20141;-81
2022/02/22 06:00:59;;;;;;;13.60;8.20;;;;;;;0.70;63.06;99304.34;4994744;28;20035;-79
2022/02/22 06:03:25;;;;;;;12.00;8.35;;;;;;;0.37;64.10;99306.53;4977555;28;20046;-80
2022/02/22 06:05:51;;;;;;;14.52;7.80;;;;;;;0.49;64.71;99306.06;4961380;28;20418;-82
2022/02/22 06:08:17;;;;;;;13.63;8.88;;;;;;;0.64;64.41;99310.72;4976885;28;20053;-81
2022/02/22 06:10:43;;;;;;;15.18;8.60;;;;;;;1.04;64.35;99324.84;4976968;28;20530;-81
2022/02/22 06:13:09;;;;;;;11.85;8.00;;;;;;;1.27;63.12;99325.66;4960758;28;20085;-82
2022/02/22 06:15:35;;;;;;;10.80;8.38;;;;;;;1.28;62.30;99316.84;4945064;28;20077;-83
2022/02/22 06:18:01;;;;;;;13.73;8.10;;;;;;;1.51;62.41;99329.06;4994132;28;20069;-81
2022/02/22 06:20:28;;;;;;;12.55;8.27;;;;;;;1.48;61.75;99335.31;4994064;28;20046;-81
2022/02/22 06:22:54;;;;;;;12.27;8.20;;;;;;;1.25;61.30;99331.03;4960422;28;20049;-82
2022/02/22 06:25:20;;;;;;;14.13;8.88;;;;;;;1.28;62.15;99327.38;4976826;28;20050;-81
2022/02/22 06:27:50;;;;;;;13.07;8.25;;;;;;;1.37;61.75;99332.28;4992904;28;20050;-81
2022/02/22 06:30:16;;;;;;;;;;;;;;;1.32;61.70;99336.88;4961380;28;20105;-81
2022/02/22 06:32:42;;;;;;;15.43;8.75;;;;;;;1.24;61.57;99336.31;4993161;28;20340;-80
2022/02/22 06:35:08;;;;;;;12.20;8.05;;;;;;;1.40;61.55;99340.03;4976286;28;20421;-81
2022/02/22 06:37:34;;;;;;;11.25;7.00;;;;;;;1.37;61.16;99345.44;4993912;28;20046;-82
2022/02/22 06:40:00;;;;;;;9.93;5.43;;;;;;;1.65;60.12;99342.47;4992542;28;20133;-81
2022/02/22 06:42:26;;;;;;;8.82;5.88;;;;;;;1.44;60.31;99357.44;4976347;28;20116;-81
2022/02/22 06:44:52;;;;;;;15.07;8.88;;;;;;;1.64;60.71;99360.06;4928552;28;20069;-82
2022/02/22 06:47:18;;;;;;;10.77;6.85;;;;;;;1.65;59.79;99363.53;4944277;28;20090;-81
2022/02/22 06:49:44;;;;;;;11.70;7.80;;;;;;;1.74;59.52;99357.88;4976595;28;20093;-80
2022/02/22 06:52:09;;;;;;;10.27;7.32;;;;;;;1.82;59.66;99349.63;4993612;28;20049;-81
2022/02/22 06:54:35;;;;;;;9.18;6.43;;;;;;;2.00;58.54;99354.09;4960172;28;20434;-82
2022/02/22 06:57:01;;;;;;;9.35;6.88;;;;;;;2.10;58.61;99355.38;4928256;28;20069;-81
2022/02/22 06:59:27;;;;;;;11.85;7.38;;;;;;;1.92;58.05;99353.59;4992287;28;20092;-81
2022/02/22 07:01:53;;;;;;;9.75;7.03;;;;;;;2.00;58.58;99359.38;4992215;28;20096;-81
2022/02/22 07:04:19;;;;;;;9.18;6.60;;;;;;;1.73;58.48;99355.28;4959651;28;20137;-81
2022/02/22 07:06:45;;;;;;;11.23;7.47;;;;;;;1.64;58.51;99354.78;4993531;28;20474;-81
2022/02/22 07:09:10;;;;;;;9.85;7.13;;;;;;;1.88;58.53;99357.25;4960069;28;20049;-80
2022/02/22 07:11:36;;;;;;;12.13;8.07;;;;;;;1.87;58.72;99350.28;4943977;28;20464;-82
2022/02/22 07:14:02;;;;;;;11.00;7.50;;;;;;;1.83;58.38;99364.53;4976082;28;20046;-80
2022/02/22 07:16:28;;;;;;;10.00;6.40;;;;;;;1.42;58.64;99373.28;4975907;28;20393;-80
2022/02/22 07:18:54;;;;;;;10.25;6.90;;;;;;;1.61;58.95;99378.63;4993412;28;20057;-81
2022/02/22 07:21:20;;;;;;;10.32;7.07;;;;;;;1.87;59.02;99372.22;4959682;28;20069;-81
2022/02/22 07:23:46;;;;;;;10.32;7.22;;;;;;;1.91;58.45;99365.88;4993708;28;20074;-82
2022/02/22 07:26:12;;;;;;;10.90;7.20;;;;;;;1.94;58.66;99370.19;4960136;28;20046;-83
2022/02/22 07:28:38;;;;;;;10.68;7.13;;;;;;;2.24;58.62;99367.09;4976503;28;20144;-80
2022/02/22 07:31:06;;;;;;;11.45;6.80;;;;;;;2.30;57.96;99377.38;4959615;28;20185;-81
2022/02/22 07:33:33;;;;;;;8.63;6.57;;;;;;;2.39;57.90;99383.06;4976025;28;20524;-83
2022/02/22 07:35:59;;;;;;;11.65;7.72;;;;;;;2.46;57.27;99378.38;4976377;28;20046;-82
2022/02/22 07:38:25;;;;;;;9.35;7.35;;;;;;;2.45;57.77;99366.09;4992283;28;20047;-81
2022/02/22 07:40:51;;;;;;;8.10;5.43;;;;;;;2.24;56.93;99383.75;4975860;28;20489;-82
2022/02/22 07:43:17;;;;;;;8.75;6.78;;;;;;;2.18;57.57;99376.13;4975055;28;20073;-82
2022/02/22 07:45:43;;;;;;;9.35;7.20;;;;;;;2.31;57.31;99382.56;4993258;28;20042;-81
2022/02/22 07:48:09;;;;;;;9.93;7.10;;;;;;;2.12;58.26;99384.31;4927862;28;20093;-82
2022/02/22 07:50:38;;;;;;;13.07;7.25;;;;;;;2.12;57.86;99384.31;4943850;28;20476;-82
2022/02/22 07:53:04;;;;;;;10.32;6.53;;;;;;;1.96;58.27;99397.34;4975394;28;20042;-81
2022/02/22 07:55:30;;;;;;;12.32;7.50;;;;;;;1.68;59.14;99390.63;4993065;28;20046;-81
2022/02/22 07:57:56;;;;;;;10.32;7.20;;;;;;;1.81;59.66;99379.56;4975928;28;20048;-81
2022/02/22 08:00:22;;;;;;;10.95;7.20;;;;;;;1.68;59.40;99393.25;4993062;28;20100;-82
2022/02/22 08:02:48;;;;;;;10.45;7.55;;;;;;;1.53;60.21;99390.41;4975743;28;20084;-83
2022/02/22 08:05:14;;;;;;;10.32;7.40;;;;;;;1.66;59.87;99391.63;4975871;28;20046;-81
2022/02/22 08:07:40;;;;;;;12.25;7.97;;;;;;;1.82;60.03;99389.16;4959981;28;20556;-82
2022/02/22 08:10:07;;;;;;;11.57;7.63;;;;;;;2.26;59.66;99378.41;4960188;28;20046;-82
2022/02/22 08:12:33;;;;;;;12.95;8.73;;;;;;;2.56;58.25;99370.88;4943450;28;20497;-82
2022/02/22 08:15:00;;;;;;;12.75;8.48;;;;;;;2.60;57.84;99389.13;4959896;28;20057;-82
2022/02/22 08:17:25;;;;;;;12.80;8.48;;;;;;;2.55;58.18;99377.94;4999643;28;20073;-83
2022/02/22 08:19:51;;;;;;;14.77;9.77;;;;;;;2.74;58.03;99382.34;4995918;28;20085;-81
2022/02/22 08:22:17;;;;;;;12.43;8.65;;;;;;;2.94;57.67;99379.63;5010119;28;20077;-83
2022/02/22 08:24:43;;;;;;;14.23;9.50;;;;;;;3.08;57.29;99374.50;4979083;28;20050;-82
2022/02/22 08:27:09;;;;;;;14.32;9.40;;;;;;;2.97;56.75;99374.19;4963420;28;20049;-82
2022/02/22 08:29:35;;;;;;;13.55;9.27;;;;;;;3.03;57.80;99376.53;4995143;28;20082;-83
2022/02/22 08:32:01;;;;;;;14.45;9.30;;;;;;;3.32;57.15;99374.25;4996317;28;20042;-83
2022/02/22 08:34:27;;;;;;;14.32;10.10;;;;;;;3.52;56.79;99381.16;4946695;28;20049;-84
2022/02/22 08:36:53;;;;;;;12.05;8.18;;;;;;;3.39;56.55;99363.28;4962529;28;20148;-81
2022/02/22 08:39:22;;;;;;;12.45;8.75;;;;;;;3.08;56.94;99365.72;4978424;28;20129;-82
2022/02/22 08:41:50;;;;;;;14.82;9.80;;;;;;;3.09;57.73;99370.94;4978485;28;20053;-80
2022/02/22 08:44:17;;;;;;;16.48;10.63;;;;;;;3.13;57.53;99375.16;4980125;28;20073;-81
2022/02/22 08:46:42;;;;;;;16.80;10.55;;;;;;;3.13;58.19;99375.16;4978998;28;20042;-81
2022/02/22 08:49:09;;;;;;;13.82;9.85;;;;;;;3.02;57.97;99372.19;4978563;28;20081;-82
2022/02/22 08:51:35;;;;;;;16.13;10.55;;;;;;;2.74;59.06;99342.75;4994648;28;20081;-83
2022/02/22 08:54:02;;;;;;;16.42;10.38;;;;;;;3.06;59.01;99349.97;4962470;28;20401;-84
2022/02/22 08:56:28;;;;;;;16.75;10.98;;;;;;;3.59;58.61;99366.72;4962965;28;20406;-83
2022/02/22 08:58:54;;;;;;;25.15;11.40;;;;;;;3.55;57.28;99371.28;4978665;28;20058;-80
2022/02/22 09:01:21;;;;;;;13.60;9.82;;;;;;;3.29;57.19;99366.47;4962032;28;20046;-80
2022/02/22 09:03:47;;;;;;;14.00;10.55;;;;;;;3.44;57.39;99368.34;4962381;28;20076;-82
2022/02/22 09:06:13;;;;;;;13.15;9.73;;;;;;;3.54;57.05;99374.88;4994146;28;20061;-80
2022/02/22 09:08:39;;;;;;;12.35;8.98;;;;;;;3.37;56.97;99372.22;4947491;28;20142;-83
2022/02/22 09:11:05;;;;;;;9.98;7.38;;;;;;;3.33;56.92;99381.22;4963462;28;20077;-82
2022/02/22 09:13:31;;;;;;;12.45;8.80;;;;;;;3.72;56.89;99377.50;4996028;28;20061;-83
2022/02/22 09:15:56;;;;;;;12.18;7.57;;;;;;;3.60;56.20;99374.53;4996668;28;20093;-81
2022/02/22 09:18:23;;;;;;;12.73;8.38;;;;;;;3.10;56.48;99370.00;4979276;28;20438;-80
2022/02/22 09:20:48;;;;;;;10.75;7.80;;;;;;;3.04;57.81;99372.09;4979056;28;20042;-82
2022/02/22 09:23:15;;;;;;;12.50;8.32;;;;;;;3.39;58.42;99370.38;4996122;28;20545;-81
2022/02/22 09:25:40;;;;;;;12.52;7.72;;;;;;;3.87;56.98;99368.75;4947403;28;20137;-82
2022/02/22 09:28:08;;;;;;;10.15;6.80;;;;;;;4.30;55.78;99370.00;4995186;28;20046;-81
2022/02/22 09:30:34;;;;;;;9.77;6.88;;;;;;;4.19;54.97;99366.22;4995153;28;20042;-82
2022/02/22 09:33:00;;;;;;;9.02;6.70;;;;;;;4.27;54.49;99380.75;4995176;28;20088;-82
2022/02/22 09:35:27;;;;;;;12.02;7.15;;;;;;;4.25;55.01;99372.06;4961652;28;20053;-80
2022/02/22 09:37:53;;;;;;;8.85;6.60;;;;;;;4.50;54.32;99382.16;4961816;28;20046;-83
2022/02/22 09:40:19;;;;;;;9.25;7.30;;;;;;;4.38;54.59;99385.47;4946011;28;20498;-81
2022/02/22 09:42:47;;;;;;;8.80;7.03;;;;;;;4.83;54.24;99374.13;4993590;28;20623;-82
2022/02/22 09:45:13;;;;;;;8.15;6.40;;;;;;;4.89;52.53;99372.97;4995234;28;20053;-81
2022/02/22 09:47:40;;;;;;;9.05;6.97;;;;;;;4.91;52.71;99376.34;4961736;28;20042;-81
2022/02/22 09:50:06;;;;;;;11.75;7.45;;;;;;;4.87;52.91;99370.38;4977477;28;20125;-82
2022/02/22 09:52:33;;;;;;;9.90;7.53;;;;;;;5.04;52.51;99361.50;4995089;28;20089;-83
2022/02/22 09:54:58;;;;;;;9.60;7.45;;;;;;;5.22;52.23;99375.47;4961704;28;20050;-81
2022/02/22 09:57:25;;;;;;;8.85;7.05;;;;;;;5.43;52.24;99368.06;4961231;28;20418;-83
2022/02/22 09:59:51;;;;;;;10.70;7.13;;;;;;;5.41;51.43;99369.94;4993576;28;20042;-83
2022/02/22 10:02:16;;;;;;;9.43;6.65;;;;;;;5.47;50.86;99364.28;4994619;28;20165;-81
2022/02/22 10:04:43;;;;;;;10.05;7.00;;;;;;;5.33;50.00;99373.03;4977023;28;20513;-82
2022/02/22 10:07:09;;;;;;;8.60;5.78;;;;;;;4.70;50.91;99383.72;4949916;28;20097;-82
2022/02/22 10:09:50;;;;;;;8.10;6.68;;;;;;;4.59;51.48;99389.59;4964587;28;20556;-83
2022/02/22 10:12:28;;;;;;;8.05;6.22;;;;;;;4.46;52.28;99385.91;4964309;28;20041;-82
2022/02/22 10:14:55;;;;;;;8.30;5.90;;;;;;;4.88;51.90;99387.97;4978736;28;20049;-82
2022/02/22 10:17:21;;;;;;;8.85;6.07;;;;;;;4.93;51.32;99384.19;4976903;28;20504;-82
2022/02/22 10:20:04;;;;;;;9.57;6.10;;;;;;;4.97;50.62;99381.31;4994754;28;20050;-84
2022/02/22 10:22:31;;;;;;;7.53;6.28;;;;;;;4.99;51.64;99387.38;4961177;28;20470;-81
2022/02/22 10:25:10;;;;;;;9.13;6.45;;;;;;;5.26;50.95;99381.44;4960690;28;20238;-80
2022/02/22 10:27:50;;;;;;;8.35;6.20;;;;;;;5.19;50.90;99395.97;4976949;28;20077;-79
2022/02/22 10:30:29;;;;;;;8.85;6.05;;;;;;;5.10;50.10;99392.91;4977137;28;20053;-81
2022/02/22 10:32:55;;;;;;;14.88;7.20;;;;;;;5.23;51.05;99397.53;4945072;28;20133;-81
2022/02/22 10:35:32;;;;;;;7.93;5.55;;;;;;;5.05;50.42;99405.56;4960381;28;20097;-82
2022/02/22 10:37:59;;;;;;;7.75;6.35;;;;;;;4.83;51.48;99389.19;4960370;28;20548;-80
2022/02/22 10:40:29;;;;;;;10.43;6.38;;;;;;;4.82;51.58;99404.22;4975891;28;20053;-81
2022/02/22 10:42:55;;;;;;;8.85;5.68;;;;;;;4.69;51.58;99404.97;4956924;28;20055;-81
2022/02/22 10:45:22;;;;;;;8.15;6.30;;;;;;;4.67;52.12;99410.38;4940964;28;20129;-81
2022/02/22 10:47:49;;;;;;;7.68;6.22;;;;;;;4.65;51.73;99411.38;4973229;28;20047;-82
2022/02/22 10:50:16;;;;;;;7.63;6.03;;;;;;;4.42;52.56;99404.69;4989296;28;20051;-82
2022/02/22 10:52:42;;;;;;;8.00;5.32;;;;;;;4.63;52.46;99403.53;4957716;28;20498;-82
2022/02/22 10:55:08;;;;;;;8.32;5.80;;;;;;;4.67;51.94;99406.88;4957032;28;20130;-81
2022/02/22 10:57:35;;;;;;;8.25;5.70;;;;;;;4.53;51.95;99405.81;4974186;28;20069;-80
2022/02/22 11:00:03;;;;;;;10.70;5.70;;;;;;;4.44;52.18;99395.72;4957168;28;20042;-80
2022/02/22 11:02:29;;;;;;;8.68;5.93;;;;;;;4.38;52.50;99404.00;4957214;28;20047;-80
2022/02/22 11:04:55;;;;;;;7.80;5.70;;;;;;;4.29;52.34;99385.97;4972811;28;20388;-81
2022/02/22 11:07:23;;;;;;;8.13;6.10;;;;;;;4.38;52.42;99382.81;4956864;28;20042;-81
2022/02/22 11:09:49;;;;;;;6.88;5.13;;;;;;;4.20;52.51;99397.03;4973242;28;20086;-81
2022/02/22 11:12:22;;;;;;;7.80;5.80;;;;;;;4.01;52.78;99390.06;4972932;28;20042;-81
2022/02/22 11:14:48;;;;;;;8.35;5.25;;;;;;;4.04;53.02;99384.63;4973967;28;20052;-82
2022/02/22 11:17:22;;;;;;;6.55;5.13;;;;;;;3.97;53.21;99387.66;4975691;28;20054;-80
2022/02/22 11:19:50;;;;;;;6.88;5.40;;;;;;;3.82;53.62;99384.88;4957297;28;20054;-83
2022/02/22 11:22:23;;;;;;;6.40;4.97;;;;;;;3.74;53.88;99386.22;4957284;28;20153;-83
2022/02/22 11:24:51;;;;;;;8.38;5.93;;;;;;;3.77;53.94;99384.28;4957545;28;20394;-82
2022/02/22 11:27:27;;;;;;;8.30;6.10;;;;;;;3.58;54.70;99386.16;4956946;28;20054;-81
2022/02/22 11:29:59;;;;;;;10.55;6.60;;;;;;;3.44;54.75;99384.19;4941271;28;20078;-80